Time;durP1;ratioP1;P1;durP2;ratioP2;P2;SDS_P1;SDS_P2;PMS_P1;PMS_P2;Temp;Humidity;BMP_temperature;BMP_pressure;BME280_temperature;BME280_humidity;BME280_pressure;Samples;Min_cycle;Max_cycle;Signal;HPM_P1;HPM_P2
2022/03/19 00:02:25;;;;;;;10.73;4.72;;;20.00;54.70;;;;;;4970965;28;20280;-57
2022/03/19 00:04:57;;;;;;;8.77;4.30;;;20.10;54.10;;;;;;4970968;28;20213;-59
2022/03/19 00:07:28;;;;;;;7.05;3.80;;;20.10;54.20;;;;;;4971233;28;20222;-61
2022/03/19 00:10:00;;;;;;;9.73;4.53;;;20.20;54.30;;;;;;4970955;28;20437;-59
2022/03/19 00:12:30;;;;;;;8.45;4.38;;;20.20;54.60;;;;;;4971408;28;20849;-59
2022/03/19 00:15:01;;;;;;;8.50;4.65;;;20.20;54.40;;;;;;4971555;28;20261;-55
2022/03/19 00:17:31;;;;;;;7.55;4.38;;;20.30;54.20;;;;;;4970942;28;20300;-58
2022/03/19 00:20:04;;;;;;;9.15;4.65;;;20.30;54.10;;;;;;4970238;28;20234;-56
2022/03/19 00:22:35;;;;;;;9.60;4.40;;;20.40;54.00;;;;;;4970818;28;20197;-57
2022/03/19 00:25:08;;;;;;;10.38;4.72;;;20.40;54.00;;;;;;4970732;28;20709;-58
2022/03/19 00:27:40;;;;;;;10.85;5.18;;;20.40;53.90;;;;;;4971109;28;20218;-57
2022/03/19 00:30:11;;;;;;;9.48;5.10;;;20.50;53.90;;;;;;4971181;28;20253;-58
2022/03/19 00:32:42;;;;;;;13.75;6.50;;;20.50;53.80;;;;;;4971323;28;20202;-57
2022/03/19 00:35:15;;;;;;;10.18;6.80;;;20.50;53.80;;;;;;4974686;28;20245;-56
2022/03/19 00:37:47;;;;;;;10.38;6.45;;;20.60;53.70;;;;;;4974995;28;20622;-57
2022/03/19 00:40:19;;;;;;;10.68;7.53;;;20.50;53.60;;;;;;4974632;28;20273;-56
2022/03/19 00:42:50;;;;;;;11.80;7.40;;;20.60;53.60;;;;;;4974508;28;20529;-56
2022/03/19 00:45:21;;;;;;;14.60;8.43;;;20.60;53.60;;;;;;4971565;28;20265;-57
2022/03/19 00:47:51;;;;;;;14.38;8.55;;;20.60;53.50;;;;;;4974698;28;20631;-58
2022/03/19 00:50:24;;;;;;;14.73;9.45;;;20.60;53.50;;;;;;4974355;28;20249;-57
2022/03/19 00:52:54;;;;;;;12.05;8.13;;;20.70;53.50;;;;;;4974626;28;20666;-57
2022/03/19 00:55:25;;;;;;;11.77;8.02;;;20.70;53.40;;;;;;4973621;28;20728;-57
2022/03/19 00:57:55;;;;;;;15.98;8.90;;;20.70;53.40;;;;;;4972190;28;20249;-57
2022/03/19 01:00:26;;;;;;;10.07;7.18;;;20.70;53.30;;;;;;4974874;28;20225;-58
2022/03/19 01:02:58;;;;;;;11.95;8.18;;;20.70;53.30;;;;;;4974571;28;20198;-57
2022/03/19 01:05:31;;;;;;;12.75;8.68;;;20.80;53.30;;;;;;4974843;28;20641;-57
2022/03/19 01:08:01;;;;;;;13.25;8.00;;;20.80;53.20;;;;;;4974330;28;20628;-57
2022/03/19 01:10:35;;;;;;;11.93;8.52;;;20.80;53.20;;;;;;4974183;28;20264;-57
2022/03/19 01:13:07;;;;;;;10.70;7.43;;;20.80;53.10;;;;;;4974452;28;20209;-56
2022/03/19 01:15:38;;;;;;;12.55;7.68;;;20.80;53.10;;;;;;4974549;28;20737;-57
2022/03/19 01:18:09;;;;;;;12.45;7.88;;;20.90;53.10;;;;;;4974511;28;20261;-57
2022/03/19 01:20:42;;;;;;;12.35;7.95;;;20.90;53.10;;;;;;4973931;28;20281;-58
2022/03/19 01:23:12;;;;;;;11.80;7.88;;;20.90;52.90;;;;;;4973936;28;20204;-58
2022/03/19 01:25:43;;;;;;;12.18;7.78;;;20.90;52.90;;;;;;4973565;28;20198;-57
2022/03/19 01:28:13;;;;;;;10.95;7.32;;;21.00;52.90;;;;;;4973719;28;20280;-57
2022/03/19 01:30:44;;;;;;;10.40;7.55;;;21.00;52.90;;;;;;4973707;28;20206;-56
2022/03/19 01:33:14;;;;;;;10.07;7.50;;;21.00;52.80;;;;;;4973483;28;20245;-57
2022/03/19 01:35:47;;;;;;;10.77;7.60;;;21.00;52.70;;;;;;4972845;28;20249;-53
2022/03/19 01:38:17;;;;;;;12.45;7.78;;;21.10;52.70;;;;;;4973713;28;20198;-57
2022/03/19 01:40:48;;;;;;;9.95;7.30;;;21.10;52.70;;;;;;4973559;28;20226;-56
2022/03/19 01:43:19;;;;;;;10.02;6.80;;;21.10;52.60;;;;;;4973706;28;20252;-58
2022/03/19 01:45:50;;;;;;;10.75;7.43;;;21.10;52.50;;;;;;4973557;28;20402;-57
2022/03/19 01:48:21;;;;;;;10.32;7.78;;;21.10;52.50;;;;;;4973842;28;20200;-56
2022/03/19 01:50:53;;;;;;;10.30;7.05;;;21.20;52.50;;;;;;4973383;28;20230;-55
2022/03/19 01:53:24;;;;;;;10.90;7.20;;;21.20;52.40;;;;;;4973316;28;20261;-57
2022/03/19 01:55:57;;;;;;;10.02;7.70;;;21.10;52.40;;;;;;4973149;28;20252;-56
2022/03/19 01:58:28;;;;;;;10.35;6.82;;;21.10;52.30;;;;;;4973566;28;20198;-55
2022/03/19 02:01:01;;;;;;;10.13;7.15;;;21.20;52.30;;;;;;4973198;28;20229;-57
2022/03/19 02:03:32;;;;;;;10.00;7.30;;;21.20;52.30;;;;;;4973597;28;20256;-57
2022/03/19 02:06:06;;;;;;;9.52;6.90;;;21.20;52.20;;;;;;4973196;28;20370;-57
2022/03/19 02:08:37;;;;;;;8.68;6.93;;;21.20;52.20;;;;;;4973338;28;20206;-57
2022/03/19 02:11:09;;;;;;;10.10;6.45;;;21.30;52.20;;;;;;4972993;28;20285;-56
2022/03/19 02:13:39;;;;;;;8.07;6.38;;;21.30;52.10;;;;;;4972943;28;20269;-58
2022/03/19 02:16:10;;;;;;;10.02;6.93;;;21.30;52.00;;;;;;4972814;28;20223;-57
2022/03/19 02:18:41;;;;;;;10.23;6.93;;;21.30;52.00;;;;;;4973498;28;20194;-56
2022/03/19 02:21:14;;;;;;;9.82;7.05;;;21.30;52.00;;;;;;4972785;28;20760;-55
2022/03/19 02:26:46;;;;;;;9.27;6.95;;;21.30;51.90;;;;;;4973038;28;20213;-57
2022/03/19 02:29:16;;;;;;;10.05;7.05;;;21.40;52.00;;;;;;4973102;28;20641;-57
2022/03/19 02:31:50;;;;;;;9.80;6.35;;;21.30;51.90;;;;;;4973104;28;20265;-58
2022/03/19 02:34:20;;;;;;;9.10;6.05;;;21.40;51.90;;;;;;4972158;28;20199;-58
2022/03/19 02:36:51;;;;;;;9.43;6.28;;;21.40;51.90;;;;;;4972575;28;20272;-57
2022/03/19 02:39:28;;;;;;;10.13;6.40;;;21.40;51.90;;;;;;4972997;28;20708;-58
2022/03/19 02:41:59;;;;;;;8.90;6.22;;;21.40;51.80;;;;;;4972563;28;20595;-56
2022/03/19 02:44:30;;;;;;;7.47;5.60;;;21.40;51.80;;;;;;4972762;28;20195;-57
2022/03/19 02:47:02;;;;;;;7.97;5.75;;;21.40;51.80;;;;;;4972471;28;20222;-57
2022/03/19 02:49:33;;;;;;;9.10;6.03;;;21.50;51.80;;;;;;4972203;28;20240;-58
2022/03/19 02:52:04;;;;;;;8.80;5.57;;;21.50;51.80;;;;;;4969674;28;20234;-57
2022/03/19 02:54:36;;;;;;;7.82;5.20;;;21.50;51.80;;;;;;4972616;28;20257;-57
2022/03/19 02:57:07;;;;;;;7.32;5.20;;;21.50;51.70;;;;;;4971738;28;20276;-57
2022/03/19 02:59:38;;;;;;;9.05;4.88;;;21.50;51.70;;;;;;4972436;28;20197;-56
2022/03/19 03:02:09;;;;;;;7.38;4.85;;;21.60;51.70;;;;;;4972415;28;20229;-58
2022/03/19 03:04:41;;;;;;;7.68;5.45;;;21.60;51.70;;;;;;4963164;28;20202;-57
2022/03/19 03:07:12;;;;;;;10.52;5.60;;;21.60;51.60;;;;;;4971570;28;20217;-56
2022/03/19 03:09:48;;;;;;;7.95;4.90;;;21.60;51.60;;;;;;4972112;28;20201;-58
2022/03/19 03:12:19;;;;;;;5.93;4.47;;;21.60;51.50;;;;;;4972046;28;20206;-56
2022/03/19 03:14:49;;;;;;;7.47;4.47;;;21.70;51.60;;;;;;4972306;28;20206;-58
2022/03/19 03:17:20;;;;;;;7.35;4.57;;;21.70;52.10;;;;;;4972130;28;20222;-57
2022/03/19 03:19:51;;;;;;;6.93;4.90;;;21.70;51.50;;;;;;4971896;28;20733;-54
2022/03/19 03:22:21;;;;;;;6.53;4.38;;;21.70;51.50;;;;;;4971915;28;20222;-55
2022/03/19 03:24:54;;;;;;;8.32;4.85;;;21.70;51.40;;;;;;4968716;28;20195;-57
2022/03/19 03:27:24;;;;;;;7.03;4.72;;;21.80;51.40;;;;;;4962645;28;20222;-55
2022/03/19 03:29:55;;;;;;;5.35;4.03;;;21.80;51.30;;;;;;4971525;28;20233;-58
2022/03/19 03:32:25;;;;;;;8.52;4.28;;;21.80;51.30;;;;;;4971494;28;20202;-58
2022/03/19 03:34:56;;;;;;;7.82;4.53;;;21.80;51.30;;;;;;4971185;28;20245;-58
2022/03/19 03:37:26;;;;;;;6.47;4.25;;;21.80;51.20;;;;;;4971731;28;20222;-58
2022/03/19 03:39:59;;;;;;;5.35;3.90;;;21.80;51.30;;;;;;4971673;28;20249;-56
2022/03/19 03:42:29;;;;;;;6.97;4.57;;;21.90;51.30;;;;;;4971309;28;20261;-54
2022/03/19 03:45:00;;;;;;;5.20;3.63;;;21.90;51.30;;;;;;4971219;28;20198;-55
2022/03/19 03:47:31;;;;;;;7.70;4.38;;;21.90;51.90;;;;;;4971418;28;20285;-58
2022/03/19 03:50:01;;;;;;;5.22;3.97;;;22.00;51.30;;;;;;4971284;28;20194;-58
2022/03/19 03:52:32;;;;;;;8.00;4.25;;;21.90;51.20;;;;;;4971573;28;20350;-57
2022/03/19 03:55:06;;;;;;;6.50;4.47;;;22.00;51.30;;;;;;4971443;28;20194;-56
2022/03/19 03:57:37;;;;;;;7.72;4.10;;;22.00;51.90;;;;;;4971300;28;20230;-57
2022/03/19 04:00:09;;;;;;;7.13;4.32;;;22.00;51.30;;;;;;4971647;28;20935;-58
2022/03/19 04:02:40;;;;;;;6.25;3.30;;;22.00;51.20;;;;;;4971720;28;20230;-56
2022/03/19 04:05:12;;;;;;;5.35;4.00;;;22.10;51.20;;;;;;4971646;28;20679;-65
2022/03/19 04:07:42;;;;;;;5.80;3.90;;;22.10;51.20;;;;;;4971152;28;20265;-59
2022/03/19 04:10:15;;;;;;;7.60;4.13;;;22.10;51.10;;;;;;4970869;28;20605;-58
2022/03/19 04:12:46;;;;;;;8.30;4.00;;;22.10;51.10;;;;;;4970731;28;20206;-56
2022/03/19 04:15:18;;;;;;;7.18;3.83;;;22.10;51.10;;;;;;4971200;28;20252;-59
2022/03/19 04:17:48;;;;;;;5.80;3.85;;;22.10;51.10;;;;;;4970955;28;20224;-58
2022/03/19 04:20:19;;;;;;;6.65;3.60;;;22.10;51.10;;;;;;4970351;28;20249;-58
2022/03/19 04:22:51;;;;;;;5.97;3.67;;;22.10;51.70;;;;;;4970825;28;20288;-58
2022/03/19 04:25:25;;;;;;;6.82;4.38;;;22.10;51.10;;;;;;4971307;28;20201;-56
2022/03/19 04:27:57;;;;;;;6.22;3.78;;;22.10;51.00;;;;;;4971080;28;20602;-58
2022/03/19 04:30:29;;;;;;;6.97;4.03;;;22.10;51.00;;;;;;4971019;28;20276;-58
2022/03/19 04:33:04;;;;;;;5.93;4.05;;;22.10;51.00;;;;;;4969170;28;20252;-55
2022/03/19 04:38:23;;;;;;;5.28;3.35;;;22.10;51.10;;;;;;4971263;28;20733;-55
2022/03/19 04:40:56;;;;;;;5.93;3.70;;;22.10;51.10;;;;;;4970867;28;20328;-58
2022/03/19 04:43:27;;;;;;;6.00;3.40;;;22.20;51.10;;;;;;4971169;28;20257;-58
2022/03/19 04:45:58;;;;;;;4.50;3.30;;;22.10;51.10;;;;;;4970817;28;20202;-58
2022/03/19 04:48:30;;;;;;;6.65;3.30;;;22.20;51.30;;;;;;4960263;28;20242;-56
2022/03/19 04:51:00;;;;;;;5.03;3.40;;;22.20;51.10;;;;;;4960581;28;20213;-53
2022/03/19 04:53:39;;;;;;;5.75;3.95;;;22.20;51.10;;;;;;4970709;28;20203;-55
2022/03/19 04:56:47;;;;;;;5.53;3.47;;;22.20;51.10;;;;;;4963153;28;20650;-55
2022/03/19 04:59:17;;;;;;;5.18;3.35;;;22.20;51.10;;;;;;4971070;28;20194;-56
2022/03/19 05:01:48;;;;;;;5.95;3.63;;;22.20;51.00;;;;;;4964318;28;20782;-54
2022/03/19 05:04:18;;;;;;;6.07;3.22;;;22.20;51.00;;;;;;4952050;28;20240;-56
2022/03/19 05:06:49;;;;;;;6.70;3.53;;;22.20;51.10;;;;;;4966027;28;20780;-50
2022/03/19 05:12:09;;;;;;;5.35;3.13;;;22.20;51.10;;;;;;4968882;28;20238;-56
2022/03/19 05:14:39;;;;;;;3.92;2.78;;;22.20;51.10;;;;;;4968269;28;20406;-58
2022/03/19 05:17:10;;;;;;;6.35;3.67;;;22.20;51.10;;;;;;4969300;28;20698;-57
2022/03/19 05:19:40;;;;;;;7.13;3.70;;;22.10;51.00;;;;;;4970099;28;20198;-56
2022/03/19 05:22:11;;;;;;;5.20;3.03;;;22.20;51.10;;;;;;4972549;28;20229;-57
2022/03/19 05:24:42;;;;;;;6.78;3.45;;;22.10;51.10;;;;;;4972351;28;20379;-55
2022/03/19 05:27:15;;;;;;;4.82;3.53;;;22.10;51.10;;;;;;4972356;28;20225;-53
2022/03/19 05:29:45;;;;;;;5.40;3.70;;;22.10;51.10;;;;;;4972240;28;20194;-58
2022/03/19 05:32:16;;;;;;;5.85;3.63;;;22.10;51.10;;;;;;4972625;28;20269;-58
2022/03/19 05:34:47;;;;;;;6.07;3.92;;;22.10;51.10;;;;;;4971742;28;20230;-55
2022/03/19 05:37:19;;;;;;;6.32;3.90;;;22.10;51.10;;;;;;4971665;28;20685;-55
2022/03/19 05:39:49;;;;;;;6.05;4.10;;;22.10;51.10;;;;;;4972037;28;20202;-57
2022/03/19 05:42:22;;;;;;;5.70;3.85;;;22.10;51.10;;;;;;4972408;28;20265;-55
2022/03/19 05:44:53;;;;;;;6.03;3.92;;;22.10;51.20;;;;;;4972161;28;20198;-56
2022/03/19 05:47:24;;;;;;;6.70;3.78;;;22.10;51.10;;;;;;4972506;28;20245;-57
2022/03/19 05:49:54;;;;;;;5.90;3.70;;;22.10;51.10;;;;;;4970978;28;21337;-53
2022/03/19 05:52:25;;;;;;;5.95;3.67;;;22.10;51.10;;;;;;4971343;28;20244;-54
2022/03/19 05:54:55;;;;;;;4.90;3.00;;;22.10;51.10;;;;;;4972360;28;20733;-55
2022/03/19 05:57:28;;;;;;;5.50;3.40;;;22.10;51.10;;;;;;4970250;28;20213;-56
2022/03/19 05:59:59;;;;;;;4.70;3.17;;;22.10;51.10;;;;;;4972415;28;20737;-57
2022/03/19 06:02:29;;;;;;;6.40;3.47;;;22.10;51.10;;;;;;4971033;28;20294;-55
2022/03/19 06:05:00;;;;;;;4.43;3.10;;;22.00;51.00;;;;;;4971063;28;20265;-57
2022/03/19 06:07:30;;;;;;;5.13;3.50;;;22.10;51.10;;;;;;4971648;28;20293;-56
2022/03/19 06:10:01;;;;;;;5.93;3.65;;;22.00;51.10;;;;;;4971920;28;20257;-58
2022/03/19 06:12:33;;;;;;;6.57;3.60;;;22.00;51.10;;;;;;4971588;28;20196;-56
2022/03/19 06:15:04;;;;;;;5.80;3.00;;;22.00;51.10;;;;;;4971677;28;20249;-56
2022/03/19 06:17:35;;;;;;;6.60;3.55;;;22.00;51.20;;;;;;4972127;28;20233;-56
2022/03/19 06:20:06;;;;;;;5.40;3.38;;;22.00;51.20;;;;;;4971832;28;20194;-55
2022/03/19 06:22:41;;;;;;;3.83;3.00;;;22.00;51.20;;;;;;4971890;28;20646;-54
2022/03/19 06:25:12;;;;;;;5.38;3.67;;;22.00;51.20;;;;;;4971358;28;20206;-57
2022/03/19 06:27:44;;;;;;;5.32;3.38;;;21.90;51.20;;;;;;4970755;28;20222;-57
2022/03/19 06:30:15;;;;;;;5.38;2.97;;;21.90;51.20;;;;;;4970429;28;20203;-57
2022/03/19 06:32:46;;;;;;;4.45;3.05;;;21.90;51.20;;;;;;4970459;28;20607;-55
2022/03/19 06:37:19;;;;;;;4.65;2.90;;;22.00;51.30;;;;;;4973756;28;20505;-56
2022/03/19 06:38:05;;;;;;;3.90;2.88;;;21.90;51.20;;;;;;4973081;28;20198;-56
2022/03/19 06:40:38;;;;;;;4.50;3.13;;;21.90;51.20;;;;;;4971340;28;20230;-57
2022/03/19 06:43:10;;;;;;;5.13;3.00;;;21.90;51.20;;;;;;4971405;28;20312;-55
2022/03/19 06:45:41;;;;;;;3.63;2.75;;;21.90;51.20;;;;;;4969854;28;20218;-55
2022/03/19 06:48:11;;;;;;;6.97;3.53;;;21.90;51.80;;;;;;4955924;28;20273;-57
2022/03/19 06:50:42;;;;;;;5.40;3.30;;;21.90;51.20;;;;;;4971720;28;20249;-56
2022/03/19 06:53:12;;;;;;;4.43;3.50;;;21.90;51.20;;;;;;4971661;28;20268;-56
2022/03/19 06:55:43;;;;;;;4.15;3.20;;;21.90;51.20;;;;;;4971879;28;20256;-56
2022/03/19 06:58:15;;;;;;;5.68;3.40;;;21.80;51.20;;;;;;4972179;28;20249;-56
2022/03/19 07:00:46;;;;;;;4.05;3.22;;;21.80;51.80;;;;;;4972528;28;20265;-56
2022/03/19 07:03:17;;;;;;;4.03;3.25;;;21.80;51.80;;;;;;4971914;28;20226;-57
2022/03/19 07:05:47;;;;;;;4.03;3.10;;;21.80;51.20;;;;;;4969708;28;20202;-56
2022/03/19 07:08:18;;;;;;;3.25;2.83;;;21.80;51.20;;;;;;4972488;28;20194;-55
2022/03/19 07:10:48;;;;;;;3.15;2.58;;;21.80;51.30;;;;;;4972465;28;20604;-55
2022/03/19 07:13:21;;;;;;;5.32;3.20;;;21.70;51.20;;;;;;4972254;28;20608;-56
2022/03/19 07:15:51;;;;;;;4.22;2.72;;;21.70;51.20;;;;;;4972187;28;20220;-55
2022/03/19 07:18:22;;;;;;;4.78;2.90;;;21.70;51.20;;;;;;4971918;28;20206;-56
2022/03/19 07:20:53;;;;;;;3.58;2.80;;;21.70;51.20;;;;;;4972198;28;20198;-56
2022/03/19 07:23:23;;;;;;;4.03;2.90;;;21.70;51.20;;;;;;4972013;28;20269;-54
2022/03/19 07:25:54;;;;;;;3.22;2.92;;;21.60;51.20;;;;;;4971806;28;20334;-55
2022/03/19 07:28:26;;;;;;;4.22;2.88;;;21.60;51.20;;;;;;4971742;28;20642;-56
2022/03/19 07:30:57;;;;;;;3.17;2.67;;;21.60;51.20;;;;;;4971807;28;20261;-57
2022/03/19 07:33:29;;;;;;;4.13;2.83;;;21.60;51.20;;;;;;4971482;28;20194;-57
2022/03/19 07:36:00;;;;;;;4.95;2.70;;;21.60;51.20;;;;;;4971807;28;20198;-55
2022/03/19 07:38:31;;;;;;;5.20;3.00;;;21.60;51.20;;;;;;4971611;28;20249;-56
2022/03/19 07:43:50;;;;;;;4.03;3.10;;;21.50;51.20;;;;;;4971552;28;20228;-55
2022/03/19 07:46:22;;;;;;;3.85;3.00;;;21.50;51.20;;;;;;4971712;28;20264;-55
2022/03/19 07:48:53;;;;;;;6.03;3.20;;;21.50;51.20;;;;;;4971417;28;20198;-57
2022/03/19 07:51:24;;;;;;;3.47;2.83;;;21.50;51.80;;;;;;4971741;28;20255;-54
2022/03/19 07:53:54;;;;;;;4.28;2.40;;;21.40;51.20;;;;;;4971626;28;20198;-56
2022/03/19 07:56:25;;;;;;;3.45;2.55;;;21.40;51.20;;;;;;4971487;28;20218;-54
2022/03/19 07:58:57;;;;;;;4.22;2.65;;;21.40;51.20;;;;;;4971461;28;20198;-56
2022/03/19 08:01:28;;;;;;;4.30;3.13;;;21.40;51.80;;;;;;4971232;28;20258;-56
2022/03/19 08:03:58;;;;;;;4.22;2.70;;;21.30;51.20;;;;;;4971025;28;20693;-55
2022/03/19 08:06:29;;;;;;;4.38;2.67;;;21.30;51.30;;;;;;4971222;28;20773;-56
2022/03/19 08:08:59;;;;;;;3.53;2.83;;;21.30;51.20;;;;;;4983491;23;20709;-53
2022/03/19 08:11:31;;;;;;;3.90;2.70;;;21.30;51.30;;;;;;4971373;28;20282;-53
2022/03/19 08:14:03;;;;;;;3.35;2.53;;;21.30;51.30;;;;;;4971310;28;20238;-56
2022/03/19 08:16:34;;;;;;;3.58;2.60;;;21.30;51.30;;;;;;4964552;28;20218;-55
2022/03/19 08:19:08;;;;;;;4.43;2.78;;;21.30;51.30;;;;;;4951528;28;20195;-55
2022/03/19 08:21:38;;;;;;;3.47;2.67;;;21.20;51.30;;;;;;4951712;28;20837;-53
2022/03/19 08:24:10;;;;;;;4.25;2.85;;;21.20;51.30;;;;;;4952068;28;20273;-54
2022/03/19 08:26:41;;;;;;;4.15;2.60;;;21.20;51.60;;;;;;4952037;28;20214;-55
2022/03/19 08:29:13;;;;;;;3.17;2.45;;;21.20;51.30;;;;;;4951970;28;20297;-55
2022/03/19 08:31:44;;;;;;;3.03;2.35;;;21.20;51.40;;;;;;4951809;28;20245;-55
2022/03/19 08:34:15;;;;;;;4.47;2.58;;;21.10;51.90;;;;;;4951516;28;20722;-55
2022/03/19 08:36:45;;;;;;;4.10;2.60;;;21.10;51.40;;;;;;4951800;28;20686;-55
2022/03/19 08:42:02;;;;;;;3.03;2.40;;;21.10;51.40;;;;;;4951686;29;20210;-55
2022/03/19 08:44:35;;;;;;;4.05;2.78;;;21.00;51.40;;;;;;4951385;28;20203;-54
2022/03/19 08:47:05;;;;;;;2.50;2.00;;;21.00;51.40;;;;;;4951472;28;20754;-56
2022/03/19 08:49:36;;;;;;;3.45;2.60;;;21.00;51.40;;;;;;4951086;28;20203;-55
2022/03/19 08:52:07;;;;;;;2.97;2.20;;;21.00;51.70;;;;;;4951349;28;20281;-54
2022/03/19 08:54:37;;;;;;;2.50;2.30;;;21.00;51.40;;;;;;4952838;28;20273;-52
2022/03/19 08:57:08;;;;;;;3.63;2.30;;;20.90;51.40;;;;;;4955222;28;20250;-54
2022/03/19 08:59:40;;;;;;;3.38;2.38;;;20.90;51.50;;;;;;4952043;28;20246;-52
2022/03/19 09:02:12;;;;;;;2.92;2.63;;;20.90;51.60;;;;;;4953393;28;20650;-54
2022/03/19 09:04:42;;;;;;;2.95;2.10;;;20.90;51.60;;;;;;4953583;28;20203;-53
2022/03/19 09:09:53;;;;;;;3.03;2.38;;;20.80;51.60;;;;;;4972999;28;20210;-57
2022/03/19 09:12:26;;;;;;;4.10;2.75;;;20.80;51.70;;;;;;4971871;28;20198;-57
2022/03/19 09:14:58;;;;;;;5.47;2.70;;;20.80;51.70;;;;;;4973091;28;20257;-54
2022/03/19 09:17:29;;;;;;;3.05;2.47;;;20.80;51.70;;;;;;4972421;28;20234;-47
2022/03/19 09:19:59;;;;;;;3.58;2.50;;;20.80;51.70;;;;;;4972516;28;20245;-52
2022/03/19 09:22:31;;;;;;;3.40;2.38;;;20.80;51.70;;;;;;4972675;28;20701;-56
2022/03/19 09:25:02;;;;;;;2.85;2.30;;;20.70;51.70;;;;;;4971866;28;20194;-56
2022/03/19 09:27:32;;;;;;;2.58;2.28;;;20.70;51.70;;;;;;4972413;28;20217;-57
2022/03/19 09:30:05;;;;;;;3.95;2.33;;;20.70;51.70;;;;;;4972535;28;20742;-55
2022/03/19 09:32:36;;;;;;;3.28;2.10;;;20.70;51.70;;;;;;4973172;28;20210;-56
2022/03/19 09:35:07;;;;;;;3.17;2.25;;;20.70;51.70;;;;;;4972207;28;20198;-57
2022/03/19 09:37:38;;;;;;;3.15;2.28;;;20.70;51.70;;;;;;4972258;28;20273;-54
2022/03/19 09:40:10;;;;;;;3.92;2.33;;;20.70;51.70;;;;;;4972035;28;20194;-57
2022/03/19 09:42:50;;;;;;;4.20;2.30;;;20.60;51.70;;;;;;4972303;28;20265;-55
2022/03/19 09:45:24;;;;;;;3.60;2.47;;;20.60;51.70;;;;;;4972182;28;20206;-58
2022/03/19 09:47:56;;;;;;;4.25;2.50;;;20.60;51.70;;;;;;4971590;28;20217;-56
2022/03/19 09:50:27;;;;;;;2.75;2.22;;;20.60;51.70;;;;;;4972208;28;20191;-55
2022/03/19 09:52:59;;;;;;;2.92;2.30;;;20.60;51.80;;;;;;4972291;28;20555;-56
2022/03/19 09:55:31;;;;;;;3.38;2.42;;;20.60;51.80;;;;;;4972491;28;20206;-57
2022/03/19 09:58:02;;;;;;;2.35;2.08;;;20.60;51.80;;;;;;4970887;28;20280;-57
2022/03/19 10:00:36;;;;;;;3.28;2.35;;;20.50;51.80;;;;;;4972199;28;20209;-55
2022/03/19 10:03:09;;;;;;;2.88;2.22;;;20.50;51.80;;;;;;4971313;28;20316;-58
2022/03/19 10:08:41;;;;;;;3.63;2.40;;;20.50;51.80;;;;;;4972201;28;20232;-56
2022/03/19 10:11:20;;;;;;;3.53;2.20;;;20.50;51.80;;;;;;4971404;28;20220;-57
2022/03/19 10:13:52;;;;;;;3.00;2.10;;;20.50;51.90;;;;;;4971566;28;20230;-58
2022/03/19 10:16:28;;;;;;;2.92;2.13;;;20.50;51.90;;;;;;4974839;28;20690;-59
2022/03/19 10:19:00;;;;;;;2.38;1.98;;;20.50;51.90;;;;;;4974553;28;20288;-59
2022/03/19 10:21:31;;;;;;;3.22;2.40;;;20.50;52.50;;;;;;4972883;28;20202;-58
2022/03/19 10:24:02;;;;;;;2.55;2.00;;;20.50;51.90;;;;;;4973041;28;20308;-58
2022/03/19 10:26:34;;;;;;;3.00;2.25;;;20.40;51.90;;;;;;4972636;28;20218;-59
2022/03/19 10:29:05;;;;;;;2.10;1.90;;;20.40;52.00;;;;;;4972650;28;20249;-58
2022/03/19 10:31:39;;;;;;;3.42;2.00;;;20.40;52.00;;;;;;4953870;28;20667;-58
2022/03/19 10:34:10;;;;;;;3.08;2.40;;;20.40;52.00;;;;;;4957937;28;20222;-58
2022/03/19 10:36:41;;;;;;;3.45;1.90;;;20.40;52.00;;;;;;4973065;28;20277;-58
2022/03/19 10:39:16;;;;;;;2.72;2.22;;;20.40;52.00;;;;;;4972734;28;20229;-59
2022/03/19 10:41:46;;;;;;;2.95;2.20;;;20.40;52.00;;;;;;4972279;28;20202;-58
2022/03/19 10:44:18;;;;;;;2.05;1.65;;;20.40;52.00;;;;;;4972170;28;20222;-57
2022/03/19 10:46:54;;;;;;;3.10;2.20;;;20.30;51.90;;;;;;4972678;28;20214;-58
2022/03/19 10:49:26;;;;;;;2.45;2.15;;;20.30;51.90;;;;;;4972491;28;20198;-57
2022/03/19 10:51:58;;;;;;;3.67;2.47;;;20.30;51.90;;;;;;4964059;28;20253;-58
2022/03/19 10:54:29;;;;;;;2.75;1.88;;;20.30;51.90;;;;;;4970842;28;20202;-58
2022/03/19 10:57:00;;;;;;;3.30;2.05;;;20.30;51.90;;;;;;4972598;28;20218;-59
2022/03/19 10:59:31;;;;;;;2.42;1.83;;;20.30;52.00;;;;;;4972185;28;20619;-58
2022/03/19 11:02:04;;;;;;;2.58;2.00;;;20.30;52.00;;;;;;4972244;28;20220;-57
2022/03/19 11:04:35;;;;;;;3.00;2.08;;;20.30;52.00;;;;;;4972122;28;20708;-59
2022/03/19 11:07:07;;;;;;;3.53;2.05;;;20.30;52.00;;;;;;4972037;28;20226;-58
2022/03/19 11:09:40;;;;;;;2.58;1.92;;;20.30;52.00;;;;;;4972832;28;20206;-59
2022/03/19 11:12:11;;;;;;;2.42;1.80;;;20.30;52.00;;;;;;4971914;28;20765;-55
2022/03/19 11:14:44;;;;;;;2.22;1.77;;;20.20;52.00;;;;;;4972140;28;20202;-58
2022/03/19 11:17:28;;;;;;;2.40;1.77;;;20.30;52.00;;;;;;4958797;28;20218;-59
2022/03/19 11:20:01;;;;;;;3.97;2.17;;;20.30;52.10;;;;;;4952880;28;20652;-59
2022/03/19 11:22:39;;;;;;;3.60;2.30;;;20.30;52.10;;;;;;4952682;28;20201;-57
2022/03/19 11:25:22;;;;;;;3.42;2.13;;;20.20;52.00;;;;;;4952673;28;20206;-58
2022/03/19 11:27:54;;;;;;;2.28;1.60;;;20.20;52.10;;;;;;4951943;28;20478;-58
2022/03/19 11:30:28;;;;;;;3.03;2.05;;;20.20;52.00;;;;;;4959925;28;20645;-58
2022/03/19 11:33:12;;;;;;;2.78;2.00;;;20.20;52.10;;;;;;4971677;28;20268;-59
2022/03/19 11:35:43;;;;;;;2.90;1.80;;;20.20;52.10;;;;;;4971601;28;20245;-58
2022/03/19 11:38:17;;;;;;;2.65;1.75;;;20.20;52.10;;;;;;4971514;28;20226;-59
2022/03/19 11:40:54;;;;;;;2.60;1.80;;;20.20;52.10;;;;;;4971309;28;20197;-58
2022/03/19 11:43:33;;;;;;;2.65;1.90;;;20.20;52.10;;;;;;4971080;28;20707;-58
2022/03/19 11:46:04;;;;;;;1.90;1.70;;;20.20;52.10;;;;;;4970534;28;20221;-58
2022/03/19 11:48:51;;;;;;;2.60;1.60;;;20.20;52.10;;;;;;4971173;28;20624;-58
2022/03/19 11:51:32;;;;;;;1.92;1.70;;;20.10;52.10;;;;;;4971077;28;20256;-59
2022/03/19 11:54:03;;;;;;;2.17;1.67;;;20.20;52.10;;;;;;4970980;28;20202;-57
2022/03/19 11:57:10;;;;;;;1.88;1.60;;;20.20;52.10;;;;;;4970940;28;20218;-59
2022/03/19 11:59:51;;;;;;;2.85;1.90;;;20.10;52.10;;;;;;4971348;28;20197;-59
2022/03/19 12:02:21;;;;;;;2.38;1.70;;;20.10;52.10;;;;;;4971606;28;20202;-59
2022/03/19 12:04:55;;;;;;;2.17;1.80;;;20.10;52.10;;;;;;4971335;28;20289;-59
2022/03/19 13:09:46;;;;;;;1.75;1.45;;;19.90;52.20;;;;;;5091025;23;20295;-58
2022/03/19 13:12:21;;;;;;;1.85;1.30;;;19.90;52.20;;;;;;4993325;28;20201;-60
2022/03/19 13:14:53;;;;;;;2.42;1.77;;;19.90;52.20;;;;;;4993524;28;20266;-61
2022/03/19 13:17:25;;;;;;;2.00;1.65;;;19.90;52.20;;;;;;4993928;28;20221;-60
2022/03/19 13:19:55;;;;;;;1.60;1.30;;;19.90;52.20;;;;;;4993455;28;20198;-59
2022/03/19 13:22:26;;;;;;;1.85;1.50;;;19.90;52.30;;;;;;4993490;28;20288;-55
2022/03/19 13:24:59;;;;;;;1.70;1.48;;;19.90;52.20;;;;;;4982389;28;20300;-58
2022/03/19 13:27:35;;;;;;;1.60;1.33;;;19.90;52.30;;;;;;4974140;28;20226;-60
2022/03/19 13:30:13;;;;;;;1.70;1.60;;;19.90;52.30;;;;;;4974122;28;20209;-60
2022/03/19 13:32:45;;;;;;;1.42;1.30;;;19.90;52.30;;;;;;4973881;28;20244;-56
2022/03/19 13:35:17;;;;;;;2.40;1.50;;;19.90;52.30;;;;;;4973583;28;20305;-60
2022/03/19 13:37:47;;;;;;;1.42;1.30;;;19.90;52.30;;;;;;4973502;28;20254;-59
2022/03/19 13:40:22;;;;;;;1.73;1.30;;;19.90;52.30;;;;;;4973184;28;20199;-54
2022/03/19 13:42:54;;;;;;;1.33;1.23;;;19.80;52.30;;;;;;4973951;28;20241;-54
2022/03/19 13:45:27;;;;;;;1.80;1.40;;;19.80;52.30;;;;;;4973677;28;20694;-51
2022/03/19 13:48:05;;;;;;;1.77;1.58;;;19.80;52.30;;;;;;4973542;28;20214;-59
2022/03/19 13:50:42;;;;;;;1.40;1.30;;;19.80;52.30;;;;;;4973992;28;20233;-59
2022/03/19 13:53:13;;;;;;;2.22;1.38;;;19.80;52.30;;;;;;4973539;28;20197;-58
2022/03/19 13:55:45;;;;;;;1.48;1.38;;;19.80;52.30;;;;;;4973142;28;20719;-59
2022/03/19 13:58:17;;;;;;;2.47;1.60;;;19.80;52.30;;;;;;4973483;28;20199;-59
2022/03/19 14:00:48;;;;;;;1.48;1.35;;;19.80;52.30;;;;;;4973650;28;20285;-53
2022/03/19 14:03:24;;;;;;;1.95;1.30;;;19.80;52.30;;;;;;4973399;28;20234;-59
2022/03/19 14:05:56;;;;;;;1.92;1.45;;;19.80;52.30;;;;;;4973220;28;20256;-59
2022/03/19 14:08:27;;;;;;;1.92;1.50;;;19.80;52.40;;;;;;4973780;28;20213;-59
2022/03/19 14:10:59;;;;;;;1.83;1.23;;;19.80;52.30;;;;;;4973219;28;20259;-59
2022/03/19 14:13:38;;;;;;;1.77;1.13;;;19.80;52.40;;;;;;4953992;28;20248;-58
2022/03/19 14:16:11;;;;;;;2.05;1.50;;;19.70;52.40;;;;;;4953536;28;20730;-54
2022/03/19 14:18:42;;;;;;;1.70;1.17;;;19.70;52.30;;;;;;4953873;28;20285;-56
2022/03/19 14:21:13;;;;;;;2.33;1.20;;;19.70;52.30;;;;;;4954319;28;20199;-59
2022/03/19 14:23:45;;;;;;;2.25;1.33;;;19.70;52.30;;;;;;4954075;28;20230;-59
2022/03/19 14:26:18;;;;;;;1.92;1.40;;;19.70;52.40;;;;;;4969388;28;20242;-56
2022/03/19 14:28:49;;;;;;;1.00;0.90;;;19.70;52.40;;;;;;4972924;28;20260;-55
2022/03/19 14:31:20;;;;;;;1.98;1.30;;;19.70;52.40;;;;;;4972984;28;20531;-53
2022/03/19 14:33:50;;;;;;;1.65;1.25;;;19.70;52.40;;;;;;4972968;28;20245;-60